Ana Sayfa
METAR-TAF:

METAR-TAF

Havaalanları :

Midland, Teksas, Amerika Birleşik Devletleri

Enlem: 31-56-52N, Boylam: 102-12-31W, yükseklik: 875 m

METAR: eksik

Saat: 20:27 (01:27 UTC)

Tahmin

Rapor saat 23:35 UTC de 1 saat ve 52 dakika önce yapıldı.
Ayın 14'si saat 00 UTC'den ayın 14'si saat 24 UTC'ye kadar geçerli Tahmin
Rüzgar güney/güneydoğudan 19 kt ve 27 kt'a kadar ani rüzgarlar
Görüş mesafesi: 10 km
7000 ft yükseklikte parçalı bulutlu
Ayın 14'si saat 0200 UTC'den
Rüzgar güneydan 11 kt
Görüş mesafesi: 10 km
Açık gökyüzü
Ayın 14'si saat 1600 UTC'den
Rüzgar güneydan 14 kt
Görüş mesafesi: 10 km
4500 ft yükseklikte parçalı bulutlu
25000 ft yükseklikte parçalı bulutlu

TAF: KMAF 132335Z 1400/1424 16019G27KT P6SM SCT070 FM140200 17011KT P6SM SKC FM141600 17014KT P6SM SCT045 SCT250

4.000'den fazla havaalanı için hava durumu gözlemleri ve tahminleri (METAR ve TAF raporları).

Kullanılabilir istasyonlar harita üzerinde sarı ve kırmızı noktalarla gösterilir.

İstasyonun adını görmek için fareyi noktanın üzerinde gezdirin.

Sonrasında hava gözlem ve tahminlerini görmek için tıklayın.

Haritayı değiştirmek için: yaklaştırmak için siyah artı işaretli yeşil düğmeye ve uzaklaştırmak için de eksi işaretli düğmeye hızla tıklayın; bitişik haritalar için yeşil okları kullanın.


METAR-TAF: